createdAt,value
2023-03-29T00:04:40.245Z,2.10
2023-03-29T00:18:40.241Z,2.10
2023-03-29T00:32:40.296Z,1.65
2023-03-29T00:46:40.298Z,1.70
2023-03-29T01:00:40.280Z,1.65
2023-03-29T01:14:40.325Z,1.40
2023-03-29T01:28:40.341Z,1.50
2023-03-29T01:42:40.288Z,1.70
2023-03-29T01:56:40.480Z,1.50
2023-03-29T02:10:40.340Z,1.70
2023-03-29T02:24:40.397Z,3.00
2023-03-29T02:38:40.372Z,1.60
2023-03-29T02:52:40.397Z,1.10
2023-03-29T03:06:40.386Z,1.50
2023-03-29T03:20:40.413Z,1.10
2023-03-29T03:34:40.412Z,1.60
2023-03-29T03:48:40.401Z,1.50
2023-03-29T04:02:40.435Z,1.10
2023-03-29T04:16:40.517Z,0.90
2023-03-29T04:30:40.459Z,1.00
2023-03-29T04:44:40.501Z,1.30
2023-03-29T04:59:40.469Z,2.00
2023-03-29T05:14:40.500Z,3.10
2023-03-29T05:29:40.484Z,4.20
2023-03-29T05:45:40.524Z,3.85
2023-03-29T06:00:40.507Z,3.30
2023-03-29T06:15:40.529Z,3.10
2023-03-29T06:30:40.567Z,3.20
2023-03-29T06:45:40.568Z,2.80
2023-03-29T07:00:40.613Z,3.10
2023-03-29T07:15:40.626Z,2.60
2023-03-29T07:30:40.682Z,2.50
2023-03-29T07:45:40.770Z,2.70
2023-03-29T08:00:40.726Z,2.85
2023-03-29T08:15:40.713Z,2.20
2023-03-29T08:30:40.769Z,2.10
2023-03-29T08:45:40.779Z,2.60
2023-03-29T09:00:40.774Z,4.80
2023-03-29T09:15:40.921Z,2.80
2023-03-29T09:30:40.873Z,1.50
2023-03-29T09:45:40.937Z,10.90
2023-03-29T10:00:40.795Z,8.05
2023-03-29T10:15:40.825Z,19.80
2023-03-29T10:30:40.809Z,12.30
2023-03-29T10:45:40.823Z,13.00
2023-03-29T11:00:40.812Z,10.30
2023-03-29T11:15:40.834Z,8.80
2023-03-29T11:30:40.855Z,8.60
2023-03-29T11:45:40.842Z,7.95
2023-03-29T12:00:40.863Z,6.90
2023-03-29T12:15:40.840Z,33.50
2023-03-29T12:30:40.855Z,14.60
2023-03-29T12:45:40.906Z,13.40
2023-03-29T13:00:40.901Z,10.00
2023-03-29T13:15:40.907Z,8.30
2023-03-29T13:30:40.885Z,7.95
2023-03-29T13:45:40.882Z,5.20
2023-03-29T14:00:40.927Z,6.40
2023-03-29T14:15:40.902Z,4.50
2023-03-29T14:30:40.911Z,6.30
2023-03-29T14:45:40.916Z,3.30
2023-03-29T15:00:40.921Z,3.20
2023-03-29T15:14:40.923Z,3.30
2023-03-29T15:28:40.941Z,2.00
2023-03-29T15:42:40.935Z,2.70
2023-03-29T15:56:43.195Z,2.90
2023-03-29T16:10:40.928Z,2.60
2023-03-29T16:24:40.930Z,3.30
2023-03-29T16:38:40.931Z,2.20
2023-03-29T16:52:40.938Z,2.20
2023-03-29T17:06:40.956Z,1.40
2023-03-29T17:20:40.979Z,1.90
2023-03-29T17:34:40.939Z,2.50
2023-03-29T17:49:40.930Z,1.90
2023-03-29T18:03:40.971Z,2.60
2023-03-29T18:17:41.036Z,2.40
2023-03-29T18:30:40.970Z,4.20
2023-03-29T18:43:42.453Z,7.10
2023-03-29T18:56:41.032Z,6.80
2023-03-29T19:09:41.038Z,5.40
2023-03-29T19:22:41.048Z,4.75
2023-03-29T19:35:41.084Z,7.40
2023-03-29T19:48:41.102Z,5.60
2023-03-29T20:01:41.069Z,3.60
2023-03-29T20:14:41.064Z,6.10
2023-03-29T20:27:41.063Z,3.90
2023-03-29T20:40:41.038Z,3.80
2023-03-29T20:53:41.092Z,3.80
2023-03-29T21:06:41.105Z,3.50
2023-03-29T21:19:41.113Z,4.20
2023-03-29T21:32:41.256Z,3.60
2023-03-29T21:45:41.118Z,2.60
2023-03-29T21:58:41.123Z,3.50
2023-03-29T22:11:41.143Z,2.50
2023-03-29T22:24:41.164Z,3.10
2023-03-29T22:37:41.185Z,2.40
2023-03-29T22:50:41.162Z,2.90
2023-03-29T23:03:41.175Z,2.30
2023-03-29T23:16:41.198Z,2.40
2023-03-29T23:29:41.177Z,2.40
2023-03-29T23:42:41.200Z,2.00
2023-03-29T23:55:41.196Z,2.30
